Time;durP1;ratioP1;P1;durP2;ratioP2;P2;SDS_P1;SDS_P2;PMS_P1;PMS_P2;Temp;Humidity;BMP_temperature;BMP_pressure;BME280_temperature;BME280_humidity;BME280_pressure;Samples;Min_cycle;Max_cycle;Signal;HPM_P1;HPM_P2
2021/03/06 00:02:23;;;;;;;17.07;6.73;;;3.10;65.50;;;;;;5082583;28;20035;-88
2021/03/06 00:04:49;;;;;;;17.50;6.73;;;3.10;65.60;;;;;;5081575;28;20491;-89
2021/03/06 00:07:14;;;;;;;16.00;6.03;;;3.10;65.70;;;;;;5082740;28;20562;-89
2021/03/06 00:09:40;;;;;;;19.13;6.63;;;3.10;65.80;;;;;;5083667;28;20016;-89
2021/03/06 00:12:06;;;;;;;18.07;6.87;;;3.10;65.90;;;;;;5083890;28;20081;-88
2021/03/06 00:14:32;;;;;;;18.30;6.40;;;3.10;65.90;;;;;;5084022;28;20024;-89
2021/03/06 00:16:59;;;;;;;17.30;6.50;;;3.10;66.00;;;;;;5084540;28;20077;-89
2021/03/06 00:19:25;;;;;;;17.20;6.83;;;3.10;65.90;;;;;;5101124;28;20028;-87
2021/03/06 00:21:50;;;;;;;16.93;7.07;;;3.10;66.00;;;;;;5081330;28;20058;-89
2021/03/06 00:24:16;;;;;;;17.47;6.93;;;3.00;66.10;;;;;;5082950;28;20032;-87
2021/03/06 00:26:42;;;;;;;17.30;6.83;;;3.00;66.10;;;;;;5083622;28;20483;-88
2021/03/06 00:29:07;;;;;;;22.03;7.50;;;3.00;66.10;;;;;;5102265;28;20366;-89
2021/03/06 00:31:35;;;;;;;16.30;6.40;;;3.00;66.20;;;;;;5083972;28;20027;-89
2021/03/06 00:34:01;;;;;;;15.70;6.00;;;2.90;66.20;;;;;;5083751;28;20043;-89
2021/03/06 00:36:27;;;;;;;16.83;6.57;;;2.90;66.20;;;;;;5084410;28;20028;-89
2021/03/06 00:38:52;;;;;;;16.13;6.30;;;2.90;66.30;;;;;;5087133;28;20036;-89
2021/03/06 00:41:18;;;;;;;17.73;6.07;;;2.90;66.40;;;;;;5093692;28;20028;-88
2021/03/06 00:43:43;;;;;;;17.77;6.10;;;2.90;66.50;;;;;;5091042;28;20020;-89
2021/03/06 00:46:09;;;;;;;16.50;6.17;;;2.90;66.60;;;;;;5099419;28;20024;-88
2021/03/06 00:48:35;;;;;;;13.47;5.37;;;2.80;66.60;;;;;;5099223;28;20086;-87
2021/03/06 00:51:00;;;;;;;15.33;5.83;;;2.80;66.70;;;;;;5080975;28;20073;-88
2021/03/06 00:53:26;;;;;;;16.43;5.33;;;2.80;66.80;;;;;;5080936;28;20487;-87
2021/03/06 00:55:51;;;;;;;16.97;6.27;;;2.80;66.80;;;;;;5080742;28;20027;-88
2021/03/06 00:58:17;;;;;;;16.57;6.30;;;2.80;66.90;;;;;;5099103;28;20478;-88
2021/03/06 01:00:42;;;;;;;13.13;5.37;;;2.80;66.90;;;;;;5081366;28;20024;-88
2021/03/06 01:03:08;;;;;;;16.07;5.53;;;2.80;66.90;;;;;;5080220;28;20130;-85
2021/03/06 01:05:33;;;;;;;15.63;5.87;;;2.80;66.80;;;;;;5080144;28;20032;-88
2021/03/06 01:07:59;;;;;;;16.97;6.90;;;2.70;66.80;;;;;;5098354;28;20486;-89
2021/03/06 01:10:29;;;;;;;18.33;5.70;;;2.80;67.00;;;;;;5080142;28;20042;-89
2021/03/06 01:12:55;;;;;;;13.53;5.30;;;2.70;67.10;;;;;;5080143;28;20431;-89
2021/03/06 01:15:21;;;;;;;15.80;5.33;;;2.70;67.10;;;;;;5080497;28;20036;-89
2021/03/06 01:17:46;;;;;;;15.97;5.07;;;2.70;67.20;;;;;;5080819;28;20048;-89
2021/03/06 01:20:13;;;;;;;15.93;5.80;;;2.70;67.30;;;;;;5081216;28;20048;-87
2021/03/06 01:22:38;;;;;;;19.37;5.93;;;2.70;67.30;;;;;;5081484;28;20028;-87
2021/03/06 01:25:06;;;;;;;15.30;5.77;;;2.60;67.50;;;;;;5079920;28;20027;-87
2021/03/06 01:27:31;;;;;;;18.03;5.57;;;2.50;67.70;;;;;;5080249;28;20417;-87
2021/03/06 01:29:57;;;;;;;14.83;5.70;;;2.50;67.90;;;;;;5098456;28;20046;-87
2021/03/06 01:32:23;;;;;;;16.57;5.80;;;2.50;67.90;;;;;;5080977;28;20032;-87
2021/03/06 01:34:48;;;;;;;18.00;5.70;;;2.50;67.90;;;;;;5080307;28;20450;-88
2021/03/06 01:37:14;;;;;;;14.63;5.47;;;2.50;67.90;;;;;;5080463;28;20024;-87
2021/03/06 01:39:40;;;;;;;17.53;6.20;;;2.50;67.90;;;;;;5079928;28;20028;-88
2021/03/06 01:42:06;;;;;;;19.27;6.27;;;2.50;67.90;;;;;;5080695;28;20024;-87
2021/03/06 01:44:32;;;;;;;17.83;5.97;;;2.60;68.00;;;;;;5098148;28;20396;-88
2021/03/06 01:46:59;;;;;;;14.60;5.13;;;2.60;67.90;;;;;;5080764;28;20020;-87
2021/03/06 01:49:25;;;;;;;15.10;5.53;;;2.60;68.00;;;;;;5098014;28;20469;-88
2021/03/06 01:51:51;;;;;;;19.07;6.57;;;2.50;67.90;;;;;;5079181;28;20031;-88
2021/03/06 01:54:22;;;;;;;14.80;5.90;;;2.60;67.90;;;;;;5079940;28;20028;-88
2021/03/06 01:56:48;;;;;;;18.43;5.67;;;2.50;67.90;;;;;;5079818;28;20012;-88
2021/03/06 01:59:14;;;;;;;14.77;5.60;;;2.50;68.10;;;;;;5079899;28;20026;-87
2021/03/06 02:01:40;;;;;;;18.03;5.77;;;2.40;68.20;;;;;;5079287;28;20055;-88
2021/03/06 02:04:05;;;;;;;17.17;6.13;;;2.40;68.40;;;;;;5078510;28;20016;-89
2021/03/06 02:06:31;;;;;;;17.03;5.27;;;2.40;68.40;;;;;;5079167;28;20024;-89
2021/03/06 02:08:56;;;;;;;15.10;5.57;;;2.40;68.50;;;;;;5097534;28;20131;-88
2021/03/06 02:11:40;;;;;;;15.43;5.53;;;2.30;68.50;;;;;;5079262;28;20020;-88
2021/03/06 02:14:05;;;;;;;13.13;4.90;;;2.30;69.20;;;;;;5078995;28;20030;-88
2021/03/06 02:16:40;;;;;;;15.97;6.83;;;2.30;68.60;;;;;;5079091;28;20059;-88
2021/03/06 02:19:28;;;;;;;14.57;5.03;;;2.30;68.60;;;;;;5097150;28;20055;-88
2021/03/06 02:22:22;;;;;;;15.20;5.27;;;2.30;68.70;;;;;;5077928;28;20481;-87
2021/03/06 02:25:01;;;;;;;15.60;5.20;;;2.30;68.70;;;;;;5078685;28;20028;-88
2021/03/06 02:27:58;;;;;;;16.63;5.15;;;2.30;68.80;;;;;;5078611;28;20015;-88
2021/03/06 02:30:29;;;;;;;16.50;5.20;;;2.30;68.90;;;;;;5055466;28;20031;-87
2021/03/06 02:32:55;;;;;;;16.93;5.80;;;2.30;69.60;;;;;;5079389;28;20024;-88
2021/03/06 02:35:25;;;;;;;14.30;4.97;;;2.30;68.90;;;;;;5079386;28;20027;-88
2021/03/06 02:38:00;;;;;;;16.37;5.57;;;2.30;68.80;;;;;;5079400;28;20073;-88
2021/03/06 02:40:28;;;;;;;12.37;4.67;;;2.30;68.80;;;;;;5078482;28;20024;-87
2021/03/06 02:42:55;;;;;;;16.10;5.77;;;2.30;68.80;;;;;;5078629;28;20024;-87
2021/03/06 02:45:23;;;;;;;17.80;5.73;;;2.30;68.80;;;;;;5079330;28;20020;-88
2021/03/06 02:47:48;;;;;;;13.87;5.27;;;2.30;68.90;;;;;;5080003;28;20020;-87
2021/03/06 02:50:14;;;;;;;14.27;5.50;;;2.30;69.00;;;;;;5098641;28;20424;-88
2021/03/06 02:52:40;;;;;;;19.23;6.27;;;2.30;69.00;;;;;;5079261;28;20036;-89
2021/03/06 02:55:08;;;;;;;18.97;6.03;;;2.30;69.10;;;;;;5079064;28;20043;-88
2021/03/06 02:57:46;;;;;;;13.05;4.63;;;2.20;69.20;;;;;;5097426;28;20054;-86
2021/03/06 03:00:31;;;;;;;15.17;4.43;;;2.30;69.30;;;;;;5079290;28;20036;-89
2021/03/06 03:03:14;;;;;;;14.40;4.90;;;2.20;69.30;;;;;;5098998;28;20030;-89
2021/03/06 03:05:51;;;;;;;14.03;4.87;;;2.20;69.30;;;;;;5080806;28;20029;-87
2021/03/06 03:08:31;;;;;;;14.67;4.73;;;2.20;69.20;;;;;;5080260;28;20550;-88
2021/03/06 03:11:01;;;;;;;14.47;5.10;;;2.20;69.30;;;;;;5083841;28;20073;-88
2021/03/06 03:13:38;;;;;;;13.23;4.93;;;2.20;69.20;;;;;;5084575;28;20024;-87
2021/03/06 03:16:10;;;;;;;19.43;5.40;;;2.20;69.40;;;;;;5083364;28;20020;-87
2021/03/06 03:19:00;;;;;;;16.30;5.90;;;2.10;69.50;;;;;;5084475;28;20036;-87
2021/03/06 03:21:29;;;;;;;16.23;6.10;;;2.10;69.60;;;;;;5068991;28;20072;-87
2021/03/06 03:24:03;;;;;;;;;;;2.10;69.60;;;;;;5084120;28;20020;-87
2021/03/06 03:26:30;;;;;;;14.47;5.27;;;2.10;69.60;;;;;;5083509;28;19911;-87
2021/03/06 03:28:57;;;;;;;19.23;5.37;;;2.00;69.80;;;;;;5082156;28;20020;-88
2021/03/06 03:31:27;;;;;;;16.53;5.40;;;2.00;69.80;;;;;;5081910;28;20024;-87
2021/03/06 03:33:53;;;;;;;15.20;4.80;;;2.00;69.80;;;;;;5082263;28;20554;-87
2021/03/06 03:36:22;;;;;;;14.73;5.00;;;2.00;70.00;;;;;;5081907;28;20020;-88
2021/03/06 03:38:48;;;;;;;;;;;2.00;69.90;;;;;;5083226;28;20027;-89
2021/03/06 03:41:14;;;;;;;16.30;4.67;;;2.00;69.90;;;;;;5081841;28;20349;-89
2021/03/06 03:43:41;;;;;;;15.43;5.17;;;2.00;70.00;;;;;;5099740;28;20032;-88
2021/03/06 03:46:07;;;;;;;14.07;4.70;;;2.00;70.00;;;;;;5081321;28;20027;-89
2021/03/06 03:48:35;;;;;;;14.43;4.93;;;2.00;70.00;;;;;;5081923;28;20162;-87
2021/03/06 03:51:02;;;;;;;17.20;4.97;;;2.00;70.00;;;;;;5081777;28;20031;-88
2021/03/06 03:53:29;;;;;;;12.83;4.40;;;2.00;69.90;;;;;;5082072;28;20445;-89
2021/03/06 03:55:54;;;;;;;14.30;4.80;;;2.00;69.90;;;;;;5081793;28;20116;-87
2021/03/06 03:58:20;;;;;;;15.60;4.20;;;1.90;70.00;;;;;;5081725;28;20481;-87
2021/03/06 04:00:46;;;;;;;12.57;3.97;;;1.90;70.20;;;;;;5082667;28;20459;-89
2021/03/06 04:03:15;;;;;;;15.57;4.40;;;1.80;70.40;;;;;;5082347;28;20054;-89
2021/03/06 04:05:41;;;;;;;13.82;4.53;;;1.80;70.50;;;;;;5082135;28;20524;-87
2021/03/06 04:08:06;;;;;;;18.43;4.20;;;1.70;70.60;;;;;;5081770;28;20028;-88
2021/03/06 04:10:32;;;;;;;15.57;4.53;;;1.70;70.60;;;;;;5082008;28;20477;-88
2021/03/06 04:12:58;;;;;;;14.57;4.40;;;1.70;70.70;;;;;;5082048;28;20108;-88
2021/03/06 04:15:24;;;;;;;12.73;4.30;;;1.70;70.80;;;;;;5081159;28;20044;-87
2021/03/06 04:17:50;;;;;;;16.33;4.50;;;1.60;70.90;;;;;;5080968;28;20020;-87
2021/03/06 04:20:18;;;;;;;12.03;4.67;;;1.60;71.10;;;;;;5081185;28;20046;-89
2021/03/06 04:22:44;;;;;;;14.03;4.23;;;1.60;71.20;;;;;;5080692;28;20025;-87
2021/03/06 04:25:11;;;;;;;15.30;4.47;;;1.60;71.30;;;;;;5081866;28;20086;-88
2021/03/06 04:27:37;;;;;;;16.97;4.37;;;1.60;71.30;;;;;;5082393;28;20031;-88
2021/03/06 04:30:05;;;;;;;14.17;4.43;;;1.60;71.20;;;;;;5100674;28;20031;-87
2021/03/06 04:32:31;;;;;;;13.03;4.30;;;1.60;71.20;;;;;;5082385;28;20028;-89
2021/03/06 04:34:56;;;;;;;15.30;4.17;;;1.70;71.20;;;;;;5081766;28;20020;-88
2021/03/06 04:37:22;;;;;;;14.53;4.70;;;1.70;71.20;;;;;;5081641;28;20020;-89
2021/03/06 04:39:48;;;;;;;15.07;4.43;;;1.60;71.30;;;;;;5081217;28;20016;-89
2021/03/06 04:42:13;;;;;;;13.63;4.37;;;1.60;71.70;;;;;;5100872;28;20035;-89
2021/03/06 04:44:39;;;;;;;15.40;4.33;;;1.60;71.50;;;;;;5083152;28;20020;-88
2021/03/06 04:47:05;;;;;;;15.00;4.37;;;1.60;71.50;;;;;;5082405;28;20031;-89
2021/03/06 04:49:32;;;;;;;13.47;3.83;;;1.60;71.50;;;;;;5082641;28;20028;-88
2021/03/06 04:51:57;;;;;;;15.00;4.33;;;1.60;71.60;;;;;;5082846;28;20032;-89
2021/03/06 04:54:23;;;;;;;15.57;4.33;;;1.60;71.50;;;;;;5082430;28;20034;-87
2021/03/06 04:56:52;;;;;;;14.53;4.33;;;1.60;71.50;;;;;;5101165;28;20028;-89
2021/03/06 04:59:17;;;;;;;13.10;4.50;;;1.70;71.50;;;;;;5082274;28;20039;-89
2021/03/06 05:01:43;;;;;;;13.50;4.17;;;1.70;71.80;;;;;;5082735;28;20032;-88
2021/03/06 05:04:09;;;;;;;15.53;4.30;;;1.70;71.70;;;;;;5082455;28;20046;-87
2021/03/06 05:06:34;;;;;;;19.67;5.30;;;1.60;71.60;;;;;;5082549;28;20118;-88
2021/03/06 05:09:00;;;;;;;15.73;4.33;;;1.70;71.70;;;;;;5082179;28;20032;-89
2021/03/06 05:11:26;;;;;;;16.07;4.77;;;1.60;71.70;;;;;;5089324;28;20503;-88
2021/03/06 05:13:51;;;;;;;13.70;4.23;;;1.60;71.70;;;;;;5110548;28;20036;-88
2021/03/06 05:16:17;;;;;;;16.00;4.33;;;1.70;71.80;;;;;;5085289;28;20469;-88
2021/03/06 05:18:43;;;;;;;16.47;4.77;;;1.70;71.80;;;;;;5080262;28;20044;-87
2021/03/06 05:21:09;;;;;;;14.00;4.00;;;1.70;71.90;;;;;;5079673;28;20044;-88
2021/03/06 05:23:34;;;;;;;13.53;4.00;;;1.60;71.80;;;;;;5079017;28;20119;-88
2021/03/06 05:26:00;;;;;;;14.13;4.23;;;1.70;73.20;;;;;;5079398;28;20063;-88
2021/03/06 05:28:25;;;;;;;15.50;5.00;;;1.70;72.10;;;;;;5079219;28;20467;-89
2021/03/06 05:30:52;;;;;;;13.87;5.13;;;1.70;72.00;;;;;;5079230;28;20031;-89
2021/03/06 05:33:18;;;;;;;13.20;4.10;;;1.80;72.60;;;;;;5079373;28;20028;-87
2021/03/06 05:35:44;;;;;;;14.27;4.10;;;1.80;71.90;;;;;;5080195;28;20028;-87
2021/03/06 05:38:10;;;;;;;12.60;4.10;;;1.90;71.90;;;;;;5079849;28;20050;-88
2021/03/06 05:40:47;;;;;;;14.63;4.90;;;1.90;71.80;;;;;;5098024;28;20024;-87
2021/03/06 05:43:14;;;;;;;15.80;4.40;;;1.90;71.90;;;;;;5079714;28;20024;-88
2021/03/06 05:45:43;;;;;;;13.30;3.73;;;1.90;71.80;;;;;;5079614;28;20381;-88
2021/03/06 05:48:10;;;;;;;;;;;1.90;72.20;;;;;;5080702;28;20035;-89
2021/03/06 05:50:35;;;;;;;12.87;3.83;;;1.90;72.20;;;;;;5099540;28;19904;-88
2021/03/06 05:53:03;;;;;;;14.47;3.90;;;2.00;71.80;;;;;;5099654;28;20035;-86
2021/03/06 05:55:29;;;;;;;11.27;4.17;;;2.10;71.80;;;;;;5081329;28;20069;-87
2021/03/06 05:57:56;;;;;;;20.80;5.13;;;2.00;71.80;;;;;;5081026;28;20118;-89
2021/03/06 06:00:23;;;;;;;15.30;3.90;;;2.00;72.00;;;;;;5080500;28;20024;-89
2021/03/06 06:02:53;;;;;;;10.53;3.83;;;2.00;72.60;;;;;;5081151;28;20024;-89
2021/03/06 06:05:19;;;;;;;16.60;4.07;;;2.00;72.00;;;;;;5081089;28;20550;-89
2021/03/06 06:07:46;;;;;;;12.97;3.80;;;2.00;72.00;;;;;;5080853;28;20032;-88
2021/03/06 06:10:12;;;;;;;13.23;3.90;;;2.00;71.90;;;;;;5080882;28;20027;-87
2021/03/06 06:12:42;;;;;;;14.00;3.73;;;2.10;72.00;;;;;;5080858;28;20031;-87
2021/03/06 06:15:09;;;;;;;16.80;3.80;;;2.10;72.00;;;;;;5080429;28;20031;-88
2021/03/06 06:17:35;;;;;;;15.87;4.10;;;2.10;72.00;;;;;;5098652;28;20048;-88
2021/03/06 06:20:01;;;;;;;16.53;4.97;;;2.10;72.70;;;;;;5079149;28;20039;-87
2021/03/06 06:22:27;;;;;;;13.40;3.47;;;2.10;72.90;;;;;;5099142;28;20035;-87
2021/03/06 06:24:53;;;;;;;14.67;3.47;;;2.10;72.30;;;;;;5079382;28;20504;-86
2021/03/06 06:27:30;;;;;;;14.07;3.73;;;2.10;72.20;;;;;;5079156;28;20021;-88
2021/03/06 06:29:57;;;;;;;13.77;3.60;;;2.10;72.30;;;;;;5079282;28;20528;-88
2021/03/06 06:32:39;;;;;;;12.23;3.90;;;2.10;72.20;;;;;;5078055;28;20046;-89
2021/03/06 06:35:10;;;;;;;14.73;3.63;;;2.20;72.50;;;;;;5096574;28;20039;-88
2021/03/06 06:37:36;;;;;;;11.70;3.50;;;2.20;72.30;;;;;;5079218;28;20027;-89
2021/03/06 06:40:23;;;;;;;13.20;3.70;;;2.20;72.20;;;;;;5078325;28;20028;-87
2021/03/06 06:42:49;;;;;;;16.73;3.67;;;2.30;72.30;;;;;;5080787;28;20042;-88
2021/03/06 06:45:18;;;;;;;10.50;4.60;;;2.30;72.40;;;;;;5082289;28;20020;-89
2021/03/06 06:47:46;;;;;;;14.98;3.97;;;2.30;72.50;;;;;;5081746;28;20036;-88
2021/03/06 06:50:13;;;;;;;12.60;3.80;;;2.30;72.80;;;;;;5081453;28;20499;-89
2021/03/06 06:52:44;;;;;;;14.17;4.07;;;2.30;72.70;;;;;;5082784;28;20020;-88
2021/03/06 06:55:11;;;;;;;10.67;3.60;;;2.30;73.60;;;;;;5082895;28;20066;-87
2021/03/06 06:57:51;;;;;;;15.93;4.23;;;2.20;72.80;;;;;;5083237;28;20062;-89
2021/03/06 07:00:17;;;;;;;;;;;2.20;73.10;;;;;;5082398;28;20028;-87
2021/03/06 07:02:52;;;;;;;12.77;4.43;;;2.20;74.00;;;;;;5082843;28;19914;-87
2021/03/06 07:05:29;;;;;;;12.63;3.97;;;2.10;73.20;;;;;;5100800;28;20042;-87
2021/03/06 07:07:56;;;;;;;12.60;3.57;;;2.20;73.30;;;;;;5082366;28;20020;-87
2021/03/06 07:10:22;;;;;;;13.50;3.60;;;2.20;73.30;;;;;;5081545;28;20016;-88
2021/03/06 07:13:01;;;;;;;14.93;3.53;;;2.20;73.40;;;;;;5081837;28;20101;-87
2021/03/06 07:15:29;;;;;;;14.50;4.35;;;2.30;73.70;;;;;;5082508;28;20060;-87
2021/03/06 07:17:57;;;;;;;12.67;3.53;;;2.30;73.00;;;;;;5083003;28;20397;-87
2021/03/06 07:20:23;;;;;;;13.27;3.97;;;2.40;73.10;;;;;;5099517;28;20047;-87
2021/03/06 07:22:53;;;;;;;14.40;3.47;;;2.40;72.90;;;;;;5082272;28;20033;-88
2021/03/06 07:25:20;;;;;;;13.93;3.37;;;2.50;73.40;;;;;;5082776;28;20024;-87
2021/03/06 07:27:47;;;;;;;11.77;3.10;;;2.50;72.90;;;;;;5085637;28;20028;-86
2021/03/06 07:30:14;;;;;;;14.73;3.87;;;2.60;72.70;;;;;;5121471;28;20020;-87
2021/03/06 07:32:42;;;;;;;15.57;3.50;;;2.60;73.20;;;;;;5103962;28;20016;-87
2021/03/06 07:35:09;;;;;;;13.27;3.37;;;2.60;73.90;;;;;;5120912;28;20043;-85
2021/03/06 07:37:38;;;;;;;11.03;3.33;;;2.60;73.20;;;;;;5103455;28;20084;-87
2021/03/06 07:40:09;;;;;;;10.70;3.35;;;2.60;72.90;;;;;;5103289;28;20063;-87
2021/03/06 07:42:43;;;;;;;12.10;2.90;;;2.70;72.90;;;;;;5099490;28;20044;-88
2021/03/06 07:45:15;;;;;;;9.33;2.93;;;2.70;72.80;;;;;;5083580;28;20056;-89
2021/03/06 07:47:43;;;;;;;11.30;2.90;;;2.70;73.50;;;;;;5082748;28;20024;-89
2021/03/06 07:50:30;;;;;;;13.10;3.33;;;2.70;73.30;;;;;;5082133;28;20074;-89
2021/03/06 07:52:57;;;;;;;12.17;3.00;;;2.80;73.00;;;;;;5096655;28;20028;-89
2021/03/06 07:55:27;;;;;;;12.37;2.90;;;2.80;72.80;;;;;;5078717;28;20021;-88
2021/03/06 07:58:11;;;;;;;16.42;3.45;;;2.90;72.60;;;;;;5079651;28;20527;-88
2021/03/06 08:00:40;;;;;;;12.80;3.93;;;2.90;73.00;;;;;;5079173;28;20020;-88
2021/03/06 08:05:58;;;;;;;14.97;3.43;;;3.00;72.40;;;;;;5097667;28;20028;-88
2021/03/06 08:08:32;;;;;;;10.03;2.70;;;3.10;72.20;;;;;;5078988;28;20046;-88
2021/03/06 08:11:15;;;;;;;15.03;3.63;;;3.10;72.30;;;;;;5080195;28;20384;-88
2021/03/06 08:13:51;;;;;;;10.67;2.93;;;3.20;72.10;;;;;;5079831;28;20460;-87
2021/03/06 08:16:28;;;;;;;23.83;3.53;;;3.20;72.00;;;;;;5081029;28;20020;-88
2021/03/06 08:19:12;;;;;;;33.40;4.97;;;3.20;72.20;;;;;;5081098;28;20016;-88
2021/03/06 08:21:56;;;;;;;22.20;3.90;;;3.20;72.90;;;;;;5080609;28;20504;-89
2021/03/06 08:24:23;;;;;;;11.33;2.50;;;3.30;72.60;;;;;;5081525;28;20030;-88
2021/03/06 08:27:09;;;;;;;73.33;8.37;;;3.30;71.90;;;;;;5080708;28;20050;-87
2021/03/06 08:29:40;;;;;;;20.23;3.43;;;3.40;72.30;;;;;;5099382;28;20374;-89
2021/03/06 08:32:15;;;;;;;12.07;3.20;;;3.40;71.90;;;;;;5100050;28;20066;-89
2021/03/06 08:34:47;;;;;;;12.80;2.87;;;3.50;72.00;;;;;;5100266;28;20103;-88
2021/03/06 08:37:13;;;;;;;18.53;3.13;;;3.50;72.40;;;;;;5100285;28;20484;-88
2021/03/06 08:39:51;;;;;;;10.87;2.77;;;3.60;72.40;;;;;;5081019;28;20039;-89
2021/03/06 08:42:19;;;;;;;11.97;2.87;;;3.60;71.60;;;;;;5098153;28;20112;-88
2021/03/06 08:44:45;;;;;;;8.60;2.60;;;3.70;71.50;;;;;;5098520;28;20028;-87
2021/03/06 08:47:11;;;;;;;14.00;2.73;;;3.70;71.70;;;;;;5080401;28;20500;-88
2021/03/06 08:49:37;;;;;;;10.20;2.80;;;3.70;72.00;;;;;;5080056;28;20020;-87
2021/03/06 08:52:04;;;;;;;13.40;3.50;;;3.70;71.50;;;;;;5097550;28;20159;-89
2021/03/06 08:54:40;;;;;;;11.37;2.50;;;3.70;71.70;;;;;;5080222;28;20038;-88
2021/03/06 08:57:20;;;;;;;11.77;3.03;;;3.80;71.60;;;;;;5080639;28;20035;-89
2021/03/06 08:59:46;;;;;;;10.47;2.40;;;3.80;71.50;;;;;;5079971;28;20205;-89
2021/03/06 09:02:26;;;;;;;8.53;2.60;;;3.80;71.20;;;;;;5080190;28;20094;-89
2021/03/06 09:05:11;;;;;;;12.20;2.80;;;3.90;71.50;;;;;;5080136;28;20396;-88
2021/03/06 09:07:48;;;;;;;10.50;2.50;;;4.00;71.50;;;;;;5079713;28;20020;-89
2021/03/06 09:10:36;;;;;;;11.00;2.30;;;4.00;71.10;;;;;;5080232;28;20039;-88
2021/03/06 09:13:07;;;;;;;8.45;2.92;;;4.10;71.10;;;;;;5079957;28;20046;-88
2021/03/06 09:15:39;;;;;;;57.17;5.73;;;4.20;70.80;;;;;;5081387;28;20028;-88
2021/03/06 09:18:08;;;;;;;57.27;4.83;;;4.20;70.30;;;;;;5080639;28;20493;-88
2021/03/06 09:20:41;;;;;;;10.98;2.33;;;4.30;70.20;;;;;;5080160;28;20043;-88
2021/03/06 09:23:06;;;;;;;10.20;2.20;;;4.40;69.70;;;;;;5093775;28;20474;-88
2021/03/06 09:25:39;;;;;;;7.50;2.23;;;4.40;69.50;;;;;;5076632;28;20070;-88
2021/03/06 09:28:10;;;;;;;12.93;2.53;;;4.50;69.00;;;;;;5077439;28;20032;-89
2021/03/06 09:30:41;;;;;;;8.63;2.57;;;4.60;69.20;;;;;;5078185;28;20020;-89
2021/03/06 09:33:24;;;;;;;9.70;2.30;;;4.60;69.00;;;;;;5088696;28;20123;-89
2021/03/06 09:36:09;;;;;;;8.67;2.20;;;4.70;68.60;;;;;;5096286;28;20031;-89
2021/03/06 09:38:42;;;;;;;10.93;2.17;;;4.80;68.80;;;;;;5061240;28;20154;-90
2021/03/06 09:41:08;;;;;;;9.43;2.23;;;4.90;68.60;;;;;;5060421;28;20059;-89
2021/03/06 09:43:35;;;;;;;5.27;2.10;;;4.90;68.20;;;;;;5077508;28;20046;-90
2021/03/06 09:46:02;;;;;;;8.73;2.27;;;4.90;68.50;;;;;;5083251;28;20396;-88
2021/03/06 09:48:29;;;;;;;12.83;2.07;;;5.00;68.10;;;;;;5082580;28;20409;-88
2021/03/06 09:50:58;;;;;;;8.33;2.53;;;5.00;67.80;;;;;;5077865;28;20074;-87
2021/03/06 09:53:29;;;;;;;8.77;2.35;;;5.00;67.80;;;;;;5075931;28;20024;-89
2021/03/06 09:56:10;;;;;;;8.80;2.30;;;5.00;67.90;;;;;;5082484;28;20484;-89
2021/03/06 09:58:40;;;;;;;8.60;2.43;;;5.10;68.00;;;;;;5078245;28;20085;-88
2021/03/06 10:01:13;;;;;;;;;;;5.20;68.80;;;;;;5096333;28;20081;-89
2021/03/06 10:03:39;;;;;;;14.40;2.80;;;5.20;67.90;;;;;;5078957;28;20284;-89
2021/03/06 10:06:07;;;;;;;11.27;3.83;;;5.20;68.70;;;;;;5095726;28;20366;-88
2021/03/06 10:08:42;;;;;;;8.60;2.70;;;5.30;68.10;;;;;;5078990;28;20107;-89
2021/03/06 10:11:08;;;;;;;8.47;2.67;;;5.30;68.00;;;;;;5077963;28;20121;-88
2021/03/06 10:13:34;;;;;;;10.77;2.97;;;5.30;68.00;;;;;;5077976;28;20032;-88
2021/03/06 10:16:01;;;;;;;18.03;4.57;;;5.30;68.40;;;;;;5077563;28;20035;-88
2021/03/06 10:18:28;;;;;;;12.27;3.27;;;5.30;68.10;;;;;;5081620;28;20481;-89
2021/03/06 10:20:54;;;;;;;11.43;3.47;;;5.40;68.10;;;;;;5082297;28;20398;-87
2021/03/06 10:23:30;;;;;;;13.27;4.13;;;5.40;68.10;;;;;;5081192;28;20439;-88
2021/03/06 10:26:25;;;;;;;10.97;3.33;;;5.40;68.30;;;;;;5099232;28;20016;-87
2021/03/06 10:29:01;;;;;;;11.37;4.30;;;5.50;68.10;;;;;;5095468;28;20032;-88
2021/03/06 10:31:45;;;;;;;10.87;3.70;;;5.50;68.20;;;;;;5080991;28;20017;-89
2021/03/06 10:34:15;;;;;;;13.60;3.80;;;5.60;68.10;;;;;;5080896;28;20069;-88
2021/03/06 10:36:42;;;;;;;12.83;3.63;;;5.50;67.90;;;;;;5080588;28;20020;-88
2021/03/06 10:39:17;;;;;;;11.57;3.67;;;5.60;68.00;;;;;;5080781;28;20016;-88
2021/03/06 10:41:42;;;;;;;6.43;2.00;;;5.80;68.00;;;;;;5080618;28;20024;-88
2021/03/06 10:44:08;;;;;;;4.77;1.70;;;6.00;67.30;;;;;;5080404;28;20111;-89
2021/03/06 10:46:35;;;;;;;6.17;1.60;;;6.10;65.40;;;;;;5080799;28;20111;-88
2021/03/06 10:49:09;;;;;;;6.20;1.50;;;6.20;65.20;;;;;;5099641;28;20119;-88
2021/03/06 10:51:49;;;;;;;6.53;1.90;;;6.30;65.50;;;;;;5081168;28;20060;-88
2021/03/06 10:54:15;;;;;;;4.13;1.53;;;6.30;64.70;;;;;;5080316;28;20024;-88
2021/03/06 10:56:41;;;;;;;5.97;1.80;;;6.30;64.40;;;;;;5080690;28;20123;-88
2021/03/06 10:59:08;;;;;;;9.13;2.10;;;6.40;65.30;;;;;;5080578;28;20032;-89
2021/03/06 11:01:51;;;;;;;7.67;2.20;;;6.50;63.70;;;;;;5080428;28;20032;-87
2021/03/06 11:04:32;;;;;;;7.30;1.87;;;6.50;64.30;;;;;;5101476;28;20020;-86
2021/03/06 11:07:03;;;;;;;7.33;2.03;;;6.50;64.60;;;;;;5083134;28;20024;-88
2021/03/06 11:09:37;;;;;;;10.10;2.00;;;6.50;64.30;;;;;;5083165;28;20024;-88
2021/03/06 11:12:16;;;;;;;6.30;1.93;;;6.50;64.50;;;;;;5099598;28;20024;-89
2021/03/06 11:14:42;;;;;;;4.57;1.75;;;6.50;64.70;;;;;;5099461;28;20401;-89
2021/03/06 11:17:07;;;;;;;8.50;2.00;;;6.50;65.00;;;;;;5081130;28;20024;-88
2021/03/06 11:19:33;;;;;;;6.70;1.90;;;6.40;65.00;;;;;;5080955;28;20024;-88
2021/03/06 11:21:58;;;;;;;9.17;2.20;;;6.50;65.10;;;;;;5080205;28;20101;-87
2021/03/06 11:24:24;;;;;;;8.97;2.00;;;6.50;64.80;;;;;;5081005;28;20028;-89
2021/03/06 11:26:52;;;;;;;6.30;1.77;;;6.60;63.70;;;;;;5080872;28;20020;-88
2021/03/06 11:29:17;;;;;;;7.30;2.17;;;6.60;64.30;;;;;;5098367;28;20026;-87
2021/03/06 11:31:44;;;;;;;6.73;1.90;;;6.70;64.20;;;;;;5080978;28;20111;-87
2021/03/06 11:34:09;;;;;;;6.33;1.80;;;6.70;64.60;;;;;;5080767;28;20036;-88
2021/03/06 11:36:35;;;;;;;7.77;1.80;;;6.80;63.20;;;;;;5080418;28;20503;-88
2021/03/06 11:39:00;;;;;;;6.10;2.10;;;6.80;64.00;;;;;;5099394;28;20031;-89
2021/03/06 11:41:26;;;;;;;5.90;1.80;;;6.90;64.60;;;;;;5081888;28;20024;-89
2021/03/06 11:43:51;;;;;;;5.10;2.07;;;6.90;64.50;;;;;;5080436;28;20050;-89
2021/03/06 11:46:17;;;;;;;8.47;2.50;;;6.90;64.30;;;;;;5080442;28;20035;-88
2021/03/06 11:48:42;;;;;;;10.00;2.20;;;6.80;62.20;;;;;;5080136;28;20055;-88
2021/03/06 11:51:08;;;;;;;5.53;1.97;;;6.80;64.00;;;;;;5079889;28;20051;-89
2021/03/06 11:53:34;;;;;;;5.90;2.03;;;6.90;64.30;;;;;;5080746;28;20069;-88
2021/03/06 11:55:59;;;;;;;6.80;2.10;;;6.90;63.00;;;;;;5080672;28;20024;-87
2021/03/06 11:58:25;;;;;;;5.07;1.90;;;6.90;64.00;;;;;;5099410;28;20497;-88
2021/03/06 12:00:50;;;;;;;7.43;2.17;;;6.90;63.50;;;;;;5081416;28;20032;-88
2021/03/06 12:03:16;;;;;;;5.10;1.90;;;6.90;63.50;;;;;;5080678;28;20028;-89
2021/03/06 12:05:41;;;;;;;10.03;1.97;;;6.90;63.10;;;;;;5080884;28;20024;-88
2021/03/06 12:08:07;;;;;;;8.60;2.37;;;6.90;63.30;;;;;;5080023;28;20024;-87
2021/03/06 12:10:33;;;;;;;6.63;2.00;;;7.00;64.50;;;;;;5081574;28;20028;-88
2021/03/06 12:12:59;;;;;;;7.27;1.93;;;7.00;62.40;;;;;;5099545;28;20439;-87
2021/03/06 12:15:25;;;;;;;10.27;2.40;;;7.10;63.90;;;;;;5099774;28;20032;-88
2021/03/06 12:17:53;;;;;;;8.27;2.50;;;7.10;63.40;;;;;;5099574;28;20500;-88
2021/03/06 12:20:19;;;;;;;6.73;2.40;;;7.20;63.70;;;;;;5074921;28;20056;-88
2021/03/06 12:22:48;;;;;;;6.70;2.40;;;7.30;64.10;;;;;;5077159;28;20482;-88
2021/03/06 12:25:15;;;;;;;11.57;3.00;;;7.30;63.80;;;;;;5059695;28;20366;-89
2021/03/06 12:27:41;;;;;;;8.77;2.83;;;7.30;63.00;;;;;;5060414;28;20024;-88
2021/03/06 12:30:12;;;;;;;9.63;2.63;;;7.40;63.80;;;;;;5077919;28;20021;-89
2021/03/06 12:32:38;;;;;;;8.40;2.33;;;7.40;63.90;;;;;;5061003;28;20043;-88
2021/03/06 12:35:07;;;;;;;7.53;2.20;;;7.50;62.80;;;;;;5061022;28;20029;-89
2021/03/06 12:37:32;;;;;;;6.80;2.05;;;7.50;63.70;;;;;;5061704;28;20028;-88
2021/03/06 12:39:58;;;;;;;9.33;2.63;;;7.50;63.80;;;;;;5061250;28;20417;-88
2021/03/06 12:42:24;;;;;;;8.60;2.30;;;7.40;63.60;;;;;;5078785;28;20024;-88
2021/03/06 12:44:50;;;;;;;6.87;1.90;;;7.40;63.10;;;;;;5077702;28;20128;-88
2021/03/06 12:47:15;;;;;;;7.17;2.60;;;7.40;63.70;;;;;;5078436;28;20075;-87
2021/03/06 12:49:41;;;;;;;7.70;1.90;;;7.50;64.10;;;;;;5060693;28;20025;-88
2021/03/06 12:52:07;;;;;;;8.10;2.53;;;7.60;63.00;;;;;;5060745;28;20035;-87
2021/03/06 12:54:32;;;;;;;10.20;2.13;;;7.70;64.10;;;;;;5078082;28;20493;-87
2021/03/06 12:56:58;;;;;;;6.37;2.30;;;7.70;63.90;;;;;;5060778;28;20025;-88
2021/03/06 12:59:24;;;;;;;5.60;2.47;;;7.80;63.50;;;;;;5060789;28;20120;-89
2021/03/06 13:01:49;;;;;;;10.67;3.20;;;7.90;63.00;;;;;;5078409;28;20042;-88
2021/03/06 13:04:15;;;;;;;9.17;2.40;;;7.90;62.00;;;;;;5077581;28;20028;-87